sensor_id;sensor_type;location;lat;lon;timestamp;pressure;altitude;pressure_sealevel;temperature;humidity
59419;BME280;45224;50.904;6.038;2023-04-29T00:01:27;99625.25;;;12.11;90.18
59419;BME280;45224;50.904;6.038;2023-04-29T00:02:57;99631.28;;;12.13;90.18
59419;BME280;45224;50.904;6.038;2023-04-29T00:04:28;99639.06;;;12.13;89.90
59419;BME280;45224;50.904;6.038;2023-04-29T00:05:59;99631.28;;;12.13;89.86
59419;BME280;45224;50.904;6.038;2023-04-29T00:07:30;99638.22;;;12.11;89.79
59419;BME280;45224;50.904;6.038;2023-04-29T00:09:01;99641.75;;;11.98;90.81
59419;BME280;45224;50.904;6.038;2023-04-29T00:10:33;99633.16;;;11.90;90.11
59419;BME280;45224;50.904;6.038;2023-04-29T00:12:04;99634.94;;;11.84;90.66
59419;BME280;45224;50.904;6.038;2023-04-29T00:13:34;99632.28;;;11.91;90.59
59419;BME280;45224;50.904;6.038;2023-04-29T00:15:05;99633.19;;;11.83;91.07
59419;BME280;45224;50.904;6.038;2023-04-29T00:16:36;99636.63;;;11.88;90.90
59419;BME280;45224;50.904;6.038;2023-04-29T00:18:06;99629.78;;;11.78;90.88
59419;BME280;45224;50.904;6.038;2023-04-29T00:19:38;99639.22;;;11.90;90.81
59419;BME280;45224;50.904;6.038;2023-04-29T00:21:08;99646.91;;;12.01;90.34
59419;BME280;45224;50.904;6.038;2023-04-29T00:22:38;99646.13;;;11.86;91.56
59419;BME280;45224;50.904;6.038;2023-04-29T00:24:09;99640.19;;;11.72;92.55
59419;BME280;45224;50.904;6.038;2023-04-29T00:25:40;99657.53;;;11.61;92.59
59419;BME280;45224;50.904;6.038;2023-04-29T00:27:10;99654.84;;;11.76;92.03
59419;BME280;45224;50.904;6.038;2023-04-29T00:28:41;99649.69;;;11.75;91.65
59419;BME280;45224;50.904;6.038;2023-04-29T00:30:11;99656.53;;;11.82;90.74
59419;BME280;45224;50.904;6.038;2023-04-29T00:31:42;99662.56;;;11.84;90.64
59419;BME280;45224;50.904;6.038;2023-04-29T00:33:12;99659.22;;;11.71;91.88
59419;BME280;45224;50.904;6.038;2023-04-29T00:34:43;99657.41;;;11.82;91.42
59419;BME280;45224;50.904;6.038;2023-04-29T00:36:13;99653.91;;;11.86;90.94
59419;BME280;45224;50.904;6.038;2023-04-29T00:37:44;99660.84;;;11.84;91.45
59419;BME280;45224;50.904;6.038;2023-04-29T00:39:14;99665.13;;;11.92;90.82
59419;BME280;45224;50.904;6.038;2023-04-29T00:40:45;99659.94;;;11.90;90.50
59419;BME280;45224;50.904;6.038;2023-04-29T00:42:17;99668.59;;;11.87;90.37
59419;BME280;45224;50.904;6.038;2023-04-29T00:43:47;99667.69;;;11.95;90.45
59419;BME280;45224;50.904;6.038;2023-04-29T00:45:18;99661.66;;;11.94;90.32
59419;BME280;45224;50.904;6.038;2023-04-29T00:46:48;99665.88;;;12.03;89.94
59419;BME280;45224;50.904;6.038;2023-04-29T00:48:20;99666.03;;;11.81;90.98
59419;BME280;45224;50.904;6.038;2023-04-29T00:49:50;99667.72;;;11.92;90.32
59419;BME280;45224;50.904;6.038;2023-04-29T00:51:21;99662.59;;;11.82;91.23
59419;BME280;45224;50.904;6.038;2023-04-29T00:52:52;99662.56;;;11.85;90.96
59419;BME280;45224;50.904;6.038;2023-04-29T00:54:22;99667.72;;;11.92;90.52
59419;BME280;45224;50.904;6.038;2023-04-29T00:55:54;99665.19;;;11.79;91.25
59419;BME280;45224;50.904;6.038;2023-04-29T00:57:26;99666.88;;;11.85;90.84
59419;BME280;45224;50.904;6.038;2023-04-29T00:59:00;99668.63;;;11.83;90.89
59419;BME280;45224;50.904;6.038;2023-04-29T01:00:31;99672.94;;;11.82;91.08
59419;BME280;45224;50.904;6.038;2023-04-29T01:02:03;99676.44;;;11.72;91.96
59419;BME280;45224;50.904;6.038;2023-04-29T01:03:33;99674.72;;;11.74;91.68
59419;BME280;45224;50.904;6.038;2023-04-29T01:05:04;99669.47;;;11.80;90.93
59419;BME280;45224;50.904;6.038;2023-04-29T01:06:39;99674.63;;;11.83;90.82
59419;BME280;45224;50.904;6.038;2023-04-29T01:08:33;99682.53;;;11.66;91.59
59419;BME280;45224;50.904;6.038;2023-04-29T01:11:21;99683.41;;;11.64;91.61
59419;BME280;45224;50.904;6.038;2023-04-29T01:12:38;99680.84;;;11.61;92.31
59419;BME280;45224;50.904;6.038;2023-04-29T01:14:11;99678.19;;;11.70;91.60
59419;BME280;45224;50.904;6.038;2023-04-29T01:17:24;99677.34;;;11.69;91.59
59419;BME280;45224;50.904;6.038;2023-04-29T01:18:58;99685.06;;;11.77;91.33
59419;BME280;45224;50.904;6.038;2023-04-29T01:20:36;99678.16;;;11.76;91.02
59419;BME280;45224;50.904;6.038;2023-04-29T01:22:07;99681.63;;;11.72;91.77
59419;BME280;45224;50.904;6.038;2023-04-29T01:23:38;99682.53;;;11.68;91.66
59419;BME280;45224;50.904;6.038;2023-04-29T01:25:09;99676.50;;;11.66;91.55
59419;BME280;45224;50.904;6.038;2023-04-29T01:27:33;99680.91;;;11.51;92.40
59419;BME280;45224;50.904;6.038;2023-04-29T01:33:05;99689.41;;;11.70;91.60
59419;BME280;45224;50.904;6.038;2023-04-29T01:34:48;99688.59;;;11.64;91.58
59419;BME280;45224;50.904;6.038;2023-04-29T01:36:50;99692.09;;;11.54;92.44
59419;BME280;45224;50.904;6.038;2023-04-29T01:38:46;99689.50;;;11.57;92.21
59419;BME280;45224;50.904;6.038;2023-04-29T01:40:34;99692.09;;;11.54;92.23
59419;BME280;45224;50.904;6.038;2023-04-29T01:42:23;99689.50;;;11.54;92.03
59419;BME280;45224;50.904;6.038;2023-04-29T01:43:57;99692.06;;;11.60;91.76
59419;BME280;45224;50.904;6.038;2023-04-29T01:45:32;99686.09;;;11.50;92.50
59419;BME280;45224;50.904;6.038;2023-04-29T01:47:04;99693.78;;;11.58;91.77
59419;BME280;45224;50.904;6.038;2023-04-29T01:48:42;99684.34;;;11.54;91.89
59419;BME280;45224;50.904;6.038;2023-04-29T01:50:13;99690.38;;;11.52;91.80
59419;BME280;45224;50.904;6.038;2023-04-29T01:51:43;99688.69;;;11.51;91.94
59419;BME280;45224;50.904;6.038;2023-04-29T01:53:14;99685.19;;;11.52;91.96
59419;BME280;45224;50.904;6.038;2023-04-29T01:54:45;99695.53;;;11.56;91.56
59419;BME280;45224;50.904;6.038;2023-04-29T01:56:16;99697.28;;;11.57;91.55
59419;BME280;45224;50.904;6.038;2023-04-29T01:58:06;99692.94;;;11.59;90.84
59419;BME280;45224;50.904;6.038;2023-04-29T01:59:49;99692.09;;;11.57;90.64
59419;BME280;45224;50.904;6.038;2023-04-29T02:01:38;99693.84;;;11.55;91.03
59419;BME280;45224;50.904;6.038;2023-04-29T02:03:09;99687.88;;;11.42;91.60
59419;BME280;45224;50.904;6.038;2023-04-29T02:04:43;99691.31;;;11.41;91.61
59419;BME280;45224;50.904;6.038;2023-04-29T02:06:13;99705.91;;;11.49;91.12
59419;BME280;45224;50.904;6.038;2023-04-29T02:07:44;99703.34;;;11.46;91.18
59419;BME280;45224;50.904;6.038;2023-04-29T02:09:14;99699.06;;;11.41;90.97
59419;BME280;45224;50.904;6.038;2023-04-29T02:10:57;99707.69;;;11.38;91.57
59419;BME280;45224;50.904;6.038;2023-04-29T02:12:40;99696.50;;;11.36;91.49
59419;BME280;45224;50.904;6.038;2023-04-29T02:14:11;99699.06;;;11.42;91.46
59419;BME280;45224;50.904;6.038;2023-04-29T02:15:42;99704.22;;;11.45;91.15
59419;BME280;45224;50.904;6.038;2023-04-29T02:17:12;99709.44;;;11.36;91.78
59419;BME280;45224;50.904;6.038;2023-04-29T02:18:45;99706.03;;;11.28;91.68
59419;BME280;45224;50.904;6.038;2023-04-29T02:20:16;99705.19;;;11.23;92.54
59419;BME280;45224;50.904;6.038;2023-04-29T02:21:46;99712.94;;;11.26;92.44
59419;BME280;45224;50.904;6.038;2023-04-29T02:23:17;99708.63;;;11.26;92.19
59419;BME280;45224;50.904;6.038;2023-04-29T02:24:47;99718.16;;;11.17;92.90
59419;BME280;45224;50.904;6.038;2023-04-29T02:26:18;99723.31;;;11.26;92.10
59419;BME280;45224;50.904;6.038;2023-04-29T02:27:49;99706.94;;;11.21;92.32
59419;BME280;45224;50.904;6.038;2023-04-29T02:29:20;99724.16;;;11.28;91.74
59419;BME280;45224;50.904;6.038;2023-04-29T02:30:51;99719.81;;;11.30;91.34
59419;BME280;45224;50.904;6.038;2023-04-29T02:32:21;99718.09;;;11.32;91.21
59419;BME280;45224;50.904;6.038;2023-04-29T02:33:52;99724.97;;;11.39;91.06
59419;BME280;45224;50.904;6.038;2023-04-29T02:35:23;99729.34;;;11.20;93.01
59419;BME280;45224;50.904;6.038;2023-04-29T02:36:53;99728.59;;;10.92;93.11
59419;BME280;45224;50.904;6.038;2023-04-29T02:38:25;99737.19;;;10.99;93.98
59419;BME280;45224;50.904;6.038;2023-04-29T02:39:56;99735.47;;;10.90;94.13
59419;BME280;45224;50.904;6.038;2023-04-29T02:41:26;99732.88;;;10.94;93.60
59419;BME280;45224;50.904;6.038;2023-04-29T02:42:57;99724.28;;;10.83;93.71
59419;BME280;45224;50.904;6.038;2023-04-29T02:44:27;99733.75;;;10.92;93.51
59419;BME280;45224;50.904;6.038;2023-04-29T02:45:58;99742.38;;;10.94;93.65
59419;BME280;45224;50.904;6.038;2023-04-29T02:47:29;99738.94;;;10.73;94.75
59419;BME280;45224;50.904;6.038;2023-04-29T02:49:00;99726.88;;;10.77;94.70
59419;BME280;45224;50.904;6.038;2023-04-29T02:50:31;99739.84;;;10.74;94.93
59419;BME280;45224;50.904;6.038;2023-04-29T02:52:02;99744.16;;;10.61;95.67
59419;BME280;45224;50.904;6.038;2023-04-29T02:53:33;99734.66;;;10.71;95.16
59419;BME280;45224;50.904;6.038;2023-04-29T02:55:04;99745.00;;;10.72;94.80
59419;BME280;45224;50.904;6.038;2023-04-29T02:56:35;99745.00;;;10.72;95.09
59419;BME280;45224;50.904;6.038;2023-04-29T02:58:05;99734.66;;;10.72;95.13
59419;BME280;45224;50.904;6.038;2023-04-29T02:59:36;99745.84;;;10.84;94.46
59419;BME280;45224;50.904;6.038;2023-04-29T03:01:07;99744.09;;;10.90;93.65
59419;BME280;45224;50.904;6.038;2023-04-29T03:02:37;99756.16;;;10.90;94.09
59419;BME280;45224;50.904;6.038;2023-04-29T03:04:09;99744.13;;;10.80;94.45
59419;BME280;45224;50.904;6.038;2023-04-29T03:05:39;99753.56;;;10.91;94.00
59419;BME280;45224;50.904;6.038;2023-04-29T03:07:10;99757.03;;;10.89;94.29
59419;BME280;45224;50.904;6.038;2023-04-29T03:08:40;99756.16;;;10.90;94.45
59419;BME280;45224;50.904;6.038;2023-04-29T03:10:11;99755.31;;;10.85;94.68
59419;BME280;45224;50.904;6.038;2023-04-29T03:11:42;99741.53;;;10.70;94.94
59419;BME280;45224;50.904;6.038;2023-04-29T03:13:12;99752.72;;;10.83;94.48
59419;BME280;45224;50.904;6.038;2023-04-29T03:14:43;99753.59;;;10.82;94.77
59419;BME280;45224;50.904;6.038;2023-04-29T03:16:14;99757.94;;;10.71;95.75
59419;BME280;45224;50.904;6.038;2023-04-29T03:17:46;99757.94;;;10.62;96.25
59419;BME280;45224;50.904;6.038;2023-04-29T03:19:17;99763.97;;;10.70;96.03
59419;BME280;45224;50.904;6.038;2023-04-29T03:20:47;99759.66;;;10.55;96.92
59419;BME280;45224;50.904;6.038;2023-04-29T03:22:18;99769.16;;;10.50;98.21
59419;BME280;45224;50.904;6.038;2023-04-29T03:23:49;99771.69;;;10.14;100.00
59419;BME280;45224;50.904;6.038;2023-04-29T03:25:27;99772.50;;;10.02;100.00
59419;BME280;45224;50.904;6.038;2023-04-29T03:26:57;99776.84;;;10.25;100.00
59419;BME280;45224;50.904;6.038;2023-04-29T03:28:29;99771.72;;;10.33;99.86
59419;BME280;45224;50.904;6.038;2023-04-29T03:29:59;99780.25;;;10.10;100.00
59419;BME280;45224;50.904;6.038;2023-04-29T03:31:30;99777.66;;;10.04;100.00
59419;BME280;45224;50.904;6.038;2023-04-29T03:33:00;99773.38;;;10.14;100.00
59419;BME280;45224;50.904;6.038;2023-04-29T03:34:33;99784.59;;;10.22;100.00
59419;BME280;45224;50.904;6.038;2023-04-29T03:36:20;99773.38;;;10.20;100.00
59419;BME280;45224;50.904;6.038;2023-04-29T03:38:04;99782.00;;;10.22;100.00
59419;BME280;45224;50.904;6.038;2023-04-29T03:39:37;99776.81;;;10.03;100.00
59419;BME280;45224;50.904;6.038;2023-04-29T03:41:08;99775.06;;;9.99;100.00
59419;BME280;45224;50.904;6.038;2023-04-29T03:42:38;99783.69;;;10.09;100.00
59419;BME280;45224;50.904;6.038;2023-04-29T03:44:09;99776.84;;;10.13;100.00
59419;BME280;45224;50.904;6.038;2023-04-29T03:45:39;99781.13;;;10.14;100.00
59419;BME280;45224;50.904;6.038;2023-04-29T03:47:10;99775.97;;;10.18;100.00
59419;BME280;45224;50.904;6.038;2023-04-29T03:48:42;99781.16;;;10.28;100.00
59419;BME280;45224;50.904;6.038;2023-04-29T03:50:13;99778.56;;;10.26;100.00
59419;BME280;45224;50.904;6.038;2023-04-29T03:51:44;99780.31;;;10.24;100.00
59419;BME280;45224;50.904;6.038;2023-04-29T03:53:18;99781.13;;;10.14;100.00
59419;BME280;45224;50.904;6.038;2023-04-29T03:54:50;99781.94;;;9.91;100.00
59419;BME280;45224;50.904;6.038;2023-04-29T03:56:20;99784.56;;;10.02;100.00
59419;BME280;45224;50.904;6.038;2023-04-29T03:57:52;99783.72;;;10.04;100.00
59419;BME280;45224;50.904;6.038;2023-04-29T03:59:23;99783.69;;;9.97;100.00
59419;BME280;45224;50.904;6.038;2023-04-29T04:00:54;99782.84;;;9.93;100.00
59419;BME280;45224;50.904;6.038;2023-04-29T04:02:29;99787.16;;;10.07;100.00
59419;BME280;45224;50.904;6.038;2023-04-29T04:04:00;99781.13;;;10.01;100.00
59419;BME280;45224;50.904;6.038;2023-04-29T04:05:30;99787.13;;;9.94;100.00
59419;BME280;45224;50.904;6.038;2023-04-29T04:07:10;99796.63;;;10.06;100.00
59419;BME280;45224;50.904;6.038;2023-04-29T04:09:00;99794.03;;;10.01;100.00
59419;BME280;45224;50.904;6.038;2023-04-29T04:10:33;99798.34;;;10.10;100.00
59419;BME280;45224;50.904;6.038;2023-04-29T04:12:07;99794.91;;;10.07;100.00
59419;BME280;45224;50.904;6.038;2023-04-29T04:13:37;99802.69;;;10.14;100.00
59419;BME280;45224;50.904;6.038;2023-04-29T04:15:08;99800.91;;;10.02;100.00
59419;BME280;45224;50.904;6.038;2023-04-29T04:16:39;99794.91;;;10.08;100.00
59419;BME280;45224;50.904;6.038;2023-04-29T04:18:10;99806.06;;;9.96;100.00
59419;BME280;45224;50.904;6.038;2023-04-29T04:19:43;99800.03;;;9.91;100.00
59419;BME280;45224;50.904;6.038;2023-04-29T04:21:13;99800.88;;;9.96;100.00
59419;BME280;45224;50.904;6.038;2023-04-29T04:22:47;99812.97;;;9.97;100.00
59419;BME280;45224;50.904;6.038;2023-04-29T04:24:28;99804.38;;;10.01;100.00
59419;BME280;45224;50.904;6.038;2023-04-29T04:25:58;99802.66;;;10.03;100.00
59419;BME280;45224;50.904;6.038;2023-04-29T04:27:58;99819.88;;;10.04;100.00
59419;BME280;45224;50.904;6.038;2023-04-29T04:29:45;99811.97;;;9.60;100.00
59419;BME280;45224;50.904;6.038;2023-04-29T04:31:21;99814.66;;;9.92;100.00
59419;BME280;45224;50.904;6.038;2023-04-29T04:32:52;99818.09;;;9.94;100.00
59419;BME280;45224;50.904;6.038;2023-04-29T04:34:23;99820.69;;;9.94;100.00
59419;BME280;45224;50.904;6.038;2023-04-29T04:35:55;99819.81;;;9.86;100.00
59419;BME280;45224;50.904;6.038;2023-04-29T04:37:26;99826.66;;;9.78;100.00
59419;BME280;45224;50.904;6.038;2023-04-29T04:39:00;99831.00;;;9.82;100.00
59419;BME280;45224;50.904;6.038;2023-04-29T04:40:30;99836.91;;;9.56;100.00
59419;BME280;45224;50.904;6.038;2023-04-29T04:42:30;99830.00;;;9.52;100.00
59419;BME280;45224;50.904;6.038;2023-04-29T04:44:02;99840.34;;;9.55;100.00
59419;BME280;45224;50.904;6.038;2023-04-29T04:46:08;99839.34;;;9.35;100.00
59419;BME280;45224;50.904;6.038;2023-04-29T04:47:42;99841.97;;;9.41;100.00
59419;BME280;45224;50.904;6.038;2023-04-29T04:49:34;99847.22;;;9.53;100.00
59419;BME280;45224;50.904;6.038;2023-04-29T04:51:11;99838.59;;;9.48;100.00
59419;BME280;45224;50.904;6.038;2023-04-29T04:52:42;99841.97;;;9.38;100.00
59419;BME280;45224;50.904;6.038;2023-04-29T04:54:23;99851.38;;;9.31;100.00
59419;BME280;45224;50.904;6.038;2023-04-29T04:56:03;99850.56;;;9.34;100.00
59419;BME280;45224;50.904;6.038;2023-04-29T04:57:35;99850.59;;;9.43;100.00
59419;BME280;45224;50.904;6.038;2023-04-29T04:59:06;99859.97;;;9.28;100.00
59419;BME280;45224;50.904;6.038;2023-04-29T05:00:44;99855.72;;;9.35;100.00
59419;BME280;45224;50.904;6.038;2023-04-29T05:02:14;99858.34;;;9.44;100.00
59419;BME280;45224;50.904;6.038;2023-04-29T05:03:45;99863.31;;;9.13;100.00
59419;BME280;45224;50.904;6.038;2023-04-29T05:05:15;99866.75;;;9.12;100.00
59419;BME280;45224;50.904;6.038;2023-04-29T05:06:46;99870.28;;;9.31;100.00
59419;BME280;45224;50.904;6.038;2023-04-29T05:08:17;99866.94;;;9.40;100.00
59419;BME280;45224;50.904;6.038;2023-04-29T05:09:50;99872.06;;;9.37;100.00
59419;BME280;45224;50.904;6.038;2023-04-29T05:11:21;99866.97;;;9.45;100.00
59419;BME280;45224;50.904;6.038;2023-04-29T05:13:17;99867.69;;;9.28;100.00
59419;BME280;45224;50.904;6.038;2023-04-29T05:14:52;99870.28;;;9.31;100.00
59419;BME280;45224;50.904;6.038;2023-04-29T05:16:23;99872.91;;;9.38;100.00
59419;BME280;45224;50.904;6.038;2023-04-29T05:17:53;99873.78;;;9.37;100.00
59419;BME280;45224;50.904;6.038;2023-04-29T05:19:24;99876.38;;;9.41;100.00
59419;BME280;45224;50.904;6.038;2023-04-29T05:20:54;99872.91;;;9.35;100.00
59419;BME280;45224;50.904;6.038;2023-04-29T05:22:25;99885.03;;;9.48;100.00
59419;BME280;45224;50.904;6.038;2023-04-29T05:23:55;99878.19;;;9.55;100.00
59419;BME280;45224;50.904;6.038;2023-04-29T05:25:26;99889.41;;;9.58;100.00
59419;BME280;45224;50.904;6.038;2023-04-29T05:26:58;99892.78;;;9.53;100.00
59419;BME280;45224;50.904;6.038;2023-04-29T05:28:29;99889.34;;;9.50;100.00
59419;BME280;45224;50.904;6.038;2023-04-29T05:30:00;99891.09;;;9.53;100.00
59419;BME280;45224;50.904;6.038;2023-04-29T05:31:31;99889.34;;;9.50;100.00
59419;BME280;45224;50.904;6.038;2023-04-29T05:33:05;99893.72;;;9.59;100.00
59419;BME280;45224;50.904;6.038;2023-04-29T05:34:35;99892.84;;;9.60;100.00
59419;BME280;45224;50.904;6.038;2023-04-29T05:36:06;99899.75;;;9.63;100.00
59419;BME280;45224;50.904;6.038;2023-04-29T05:37:37;99895.41;;;9.60;100.00
59419;BME280;45224;50.904;6.038;2023-04-29T05:39:18;99898.88;;;9.65;100.00
59419;BME280;45224;50.904;6.038;2023-04-29T05:40:54;99897.13;;;9.58;100.00
59419;BME280;45224;50.904;6.038;2023-04-29T05:42:51;99902.38;;;9.67;100.00
59419;BME280;45224;50.904;6.038;2023-04-29T05:44:22;99907.53;;;9.71;100.00
59419;BME280;45224;50.904;6.038;2023-04-29T05:45:52;99909.22;;;9.68;100.00
59419;BME280;45224;50.904;6.038;2023-04-29T05:47:23;99904.03;;;9.65;100.00
59419;BME280;45224;50.904;6.038;2023-04-29T05:48:53;99905.78;;;9.66;100.00
59419;BME280;45224;50.904;6.038;2023-04-29T05:50:24;99918.59;;;9.46;100.00
59419;BME280;45224;50.904;6.038;2023-04-29T05:51:55;99923.50;;;9.12;100.00
59419;BME280;45224;50.904;6.038;2023-04-29T05:53:26;99920.94;;;9.17;100.00
59419;BME280;45224;50.904;6.038;2023-04-29T05:54:56;99921.97;;;9.39;100.00
59419;BME280;45224;50.904;6.038;2023-04-29T05:56:27;99923.75;;;9.46;100.00
59419;BME280;45224;50.904;6.038;2023-04-29T05:57:59;99922.06;;;9.52;100.00
59419;BME280;45224;50.904;6.038;2023-04-29T05:59:30;99918.56;;;9.43;100.00
59419;BME280;45224;50.904;6.038;2023-04-29T06:01:02;99923.69;;;9.37;100.00
59419;BME280;45224;50.904;6.038;2023-04-29T06:02:33;99932.34;;;9.47;100.00
59419;BME280;45224;50.904;6.038;2023-04-29T06:04:04;99928.91;;;9.53;100.00
59419;BME280;45224;50.904;6.038;2023-04-29T06:05:44;99936.69;;;9.57;100.00
59419;BME280;45224;50.904;6.038;2023-04-29T06:07:35;99938.31;;;9.37;100.00
59419;BME280;45224;50.904;6.038;2023-04-29T06:09:35;99936.50;;;9.29;100.00
59419;BME280;45224;50.904;6.038;2023-04-29T06:11:06;99933.13;;;9.40;100.00
59419;BME280;45224;50.904;6.038;2023-04-29T06:12:36;99941.03;;;9.60;100.00
59419;BME280;45224;50.904;6.038;2023-04-29T06:14:07;99935.91;;;9.66;100.00
59419;BME280;45224;50.904;6.038;2023-04-29T06:15:37;99942.00;;;9.76;100.00
59419;BME280;45224;50.904;6.038;2023-04-29T06:17:08;99943.63;;;9.61;100.00
59419;BME280;45224;50.904;6.038;2023-04-29T06:18:38;99950.53;;;9.68;100.00
59419;BME280;45224;50.904;6.038;2023-04-29T06:20:09;99948.84;;;9.74;100.00
59419;BME280;45224;50.904;6.038;2023-04-29T06:21:42;99945.34;;;9.65;100.00
59419;BME280;45224;50.904;6.038;2023-04-29T06:23:12;99957.50;;;9.76;100.00
59419;BME280;45224;50.904;6.038;2023-04-29T06:24:43;99954.78;;;9.60;100.00
59419;BME280;45224;50.904;6.038;2023-04-29T06:26:17;99962.63;;;9.73;100.00
59419;BME280;45224;50.904;6.038;2023-04-29T06:27:49;99959.13;;;9.61;100.00
59419;BME280;45224;50.904;6.038;2023-04-29T06:29:21;99962.63;;;9.73;100.00
59419;BME280;45224;50.904;6.038;2023-04-29T06:30:52;99966.94;;;9.77;100.00
59419;BME280;45224;50.904;6.038;2023-04-29T06:32:23;99955.72;;;9.72;100.00
59419;BME280;45224;50.904;6.038;2023-04-29T06:33:53;99964.38;;;9.80;100.00
59419;BME280;45224;50.904;6.038;2023-04-29T06:35:24;99970.47;;;9.91;100.00
59419;BME280;45224;50.904;6.038;2023-04-29T06:37:06;99971.31;;;9.84;100.00
59419;BME280;45224;50.904;6.038;2023-04-29T06:39:12;99978.16;;;9.79;100.00
59419;BME280;45224;50.904;6.038;2023-04-29T06:40:53;99974.72;;;9.83;100.00
59419;BME280;45224;50.904;6.038;2023-04-29T06:42:59;99979.09;;;9.90;100.00
59419;BME280;45224;50.904;6.038;2023-04-29T06:44:52;99982.41;;;9.67;100.00
59419;BME280;45224;50.904;6.038;2023-04-29T06:46:42;99984.13;;;9.72;100.00
59419;BME280;45224;50.904;6.038;2023-04-29T06:48:20;99986.66;;;9.67;100.00
59419;BME280;45224;50.904;6.038;2023-04-29T06:49:53;99987.53;;;9.63;100.00
59419;BME280;45224;50.904;6.038;2023-04-29T06:51:25;99990.19;;;9.77;100.00
59419;BME280;45224;50.904;6.038;2023-04-29T06:52:57;99988.53;;;9.83;100.00
59419;BME280;45224;50.904;6.038;2023-04-29T06:54:27;99991.97;;;9.84;100.00
59419;BME280;45224;50.904;6.038;2023-04-29T06:55:58;99986.84;;;9.90;100.00
59419;BME280;45224;50.904;6.038;2023-04-29T06:57:28;99997.84;;;9.61;100.00
59419;BME280;45224;50.904;6.038;2023-04-29T06:58:59;99987.56;;;9.67;100.00
59419;BME280;45224;50.904;6.038;2023-04-29T07:00:29;99996.25;;;9.82;100.00
59419;BME280;45224;50.904;6.038;2023-04-29T07:02:00;99999.72;;;9.85;100.00
59419;BME280;45224;50.904;6.038;2023-04-29T07:03:30;99986.47;;;9.39;100.00
59419;BME280;45224;50.904;6.038;2023-04-29T07:05:01;100002.19;;;9.72;100.00
59419;BME280;45224;50.904;6.038;2023-04-29T07:06:32;100009.03;;;9.65;100.00
59419;BME280;45224;50.904;6.038;2023-04-29T07:08:02;100007.31;;;9.65;100.00
59419;BME280;45224;50.904;6.038;2023-04-29T07:09:33;100003.75;;;9.48;100.00
59419;BME280;45224;50.904;6.038;2023-04-29T07:11:03;100005.56;;;9.58;100.00
59419;BME280;45224;50.904;6.038;2023-04-29T07:12:34;100004.69;;;9.56;100.00
59419;BME280;45224;50.904;6.038;2023-04-29T07:14:06;100008.94;;;9.48;100.00
59419;BME280;45224;50.904;6.038;2023-04-29T07:15:37;100008.94;;;9.54;100.00
59419;BME280;45224;50.904;6.038;2023-04-29T07:17:07;100016.84;;;9.71;100.00
59419;BME280;45224;50.904;6.038;2023-04-29T07:18:38;100018.47;;;9.60;100.00
59419;BME280;45224;50.904;6.038;2023-04-29T07:20:10;100018.53;;;9.67;100.00
59419;BME280;45224;50.904;6.038;2023-04-29T07:21:41;100020.25;;;9.68;100.00
59419;BME280;45224;50.904;6.038;2023-04-29T07:23:12;100019.34;;;9.63;100.00
59419;BME280;45224;50.904;6.038;2023-04-29T07:24:44;100024.59;;;9.73;100.00
59419;BME280;45224;50.904;6.038;2023-04-29T07:26:16;100023.66;;;9.61;100.00
59419;BME280;45224;50.904;6.038;2023-04-29T07:27:48;100024.41;;;9.48;100.00
59419;BME280;45224;50.904;6.038;2023-04-29T07:29:19;100034.78;;;9.57;100.00
59419;BME280;45224;50.904;6.038;2023-04-29T07:30:50;100033.19;;;9.72;100.00
59419;BME280;45224;50.904;6.038;2023-04-29T07:32:21;100032.41;;;9.80;100.00
59419;BME280;45224;50.904;6.038;2023-04-29T07:33:52;100032.44;;;9.88;100.00
59419;BME280;45224;50.904;6.038;2023-04-29T07:35:24;100033.19;;;9.72;100.00
59419;BME280;45224;50.904;6.038;2023-04-29T07:36:54;100037.44;;;9.66;100.00
59419;BME280;45224;50.904;6.038;2023-04-29T07:38:26;100029.78;;;9.76;100.00
59419;BME280;45224;50.904;6.038;2023-04-29T07:39:57;100033.88;;;9.49;100.00
59419;BME280;45224;50.904;6.038;2023-04-29T07:41:28;100029.69;;;9.63;100.00
59419;BME280;45224;50.904;6.038;2023-04-29T07:42:58;100033.13;;;9.65;100.00
59419;BME280;45224;50.904;6.038;2023-04-29T07:44:33;100040.72;;;9.45;100.00
59419;BME280;45224;50.904;6.038;2023-04-29T07:46:04;100045.13;;;9.59;100.00
59419;BME280;45224;50.904;6.038;2023-04-29T07:47:35;100045.22;;;9.69;100.00
59419;BME280;45224;50.904;6.038;2023-04-29T07:49:05;100046.94;;;9.74;100.00
59419;BME280;45224;50.904;6.038;2023-04-29T07:50:36;100052.13;;;9.74;100.00
59419;BME280;45224;50.904;6.038;2023-04-29T07:52:07;100043.56;;;9.78;100.00
59419;BME280;45224;50.904;6.038;2023-04-29T07:53:39;100046.09;;;9.72;100.00
59419;BME280;45224;50.904;6.038;2023-04-29T07:55:10;100040.03;;;9.66;100.00
59419;BME280;45224;50.904;6.038;2023-04-29T07:56:40;100049.97;;;9.23;100.00
59419;BME280;45224;50.904;6.038;2023-04-29T07:58:11;100040.50;;;9.21;100.00
59419;BME280;45224;50.904;6.038;2023-04-29T07:59:42;100047.56;;;9.40;100.00
59419;BME280;45224;50.904;6.038;2023-04-29T08:01:12;100054.34;;;9.30;100.00
59419;BME280;45224;50.904;6.038;2023-04-29T08:02:45;100060.25;;;9.20;100.00
59419;BME280;45224;50.904;6.038;2023-04-29T08:04:18;100058.53;;;9.16;100.00
59419;BME280;45224;50.904;6.038;2023-04-29T08:06:02;100066.25;;;9.14;100.00
59419;BME280;45224;50.904;6.038;2023-04-29T08:07:33;100064.44;;;9.07;100.00
59419;BME280;45224;50.904;6.038;2023-04-29T08:09:03;100068.72;;;9.07;100.00
59419;BME280;45224;50.904;6.038;2023-04-29T08:10:36;100069.63;;;9.10;100.00
59419;BME280;45224;50.904;6.038;2023-04-29T08:12:07;100065.38;;;9.17;100.00
59419;BME280;45224;50.904;6.038;2023-04-29T08:13:37;100072.28;;;9.18;100.00
59419;BME280;45224;50.904;6.038;2023-04-29T08:15:08;100069.56;;;9.03;100.00
59419;BME280;45224;50.904;6.038;2023-04-29T08:16:39;100078.38;;;9.25;100.00
59419;BME280;45224;50.904;6.038;2023-04-29T08:18:09;100076.69;;;9.28;100.00
59419;BME280;45224;50.904;6.038;2023-04-29T08:19:40;100077.66;;;9.38;100.00
59419;BME280;45224;50.904;6.038;2023-04-29T08:21:10;100081.16;;;9.43;100.00